Time;durP1;ratioP1;P1;durP2;ratioP2;P2;SDS_P1;SDS_P2;PMS_P1;PMS_P2;Temp;Humidity;BMP_temperature;BMP_pressure;BME280_temperature;BME280_humidity;BME280_pressure;Samples;Min_cycle;Max_cycle;Signal;HPM_P1;HPM_P2
2022/03/19 00:02:23;;;;;;;11.77;8.47;;;7.40;99.90;;;;;;5124211;28;20462;-82
2022/03/19 00:04:49;;;;;;;10.93;6.20;;;7.30;99.90;;;;;;5124299;28;20450;-80
2022/03/19 00:07:16;;;;;;;10.97;7.57;;;7.40;99.90;;;;;;5126834;28;20491;-83
2022/03/19 00:09:43;;;;;;;12.57;6.87;;;7.30;99.90;;;;;;5126644;28;20531;-83
2022/03/19 00:12:14;;;;;;;22.70;8.43;;;7.30;99.90;;;;;;5126212;28;20497;-82
2022/03/19 00:14:41;;;;;;;11.80;6.93;;;7.30;99.90;;;;;;5124112;28;20469;-83
2022/03/19 00:17:11;;;;;;;11.20;8.30;;;7.20;99.90;;;;;;5123641;28;20826;-83
2022/03/19 00:19:39;;;;;;;11.90;8.00;;;7.10;99.90;;;;;;5123208;28;20503;-82
2022/03/19 00:22:06;;;;;;;10.10;8.17;;;7.10;99.90;;;;;;5124750;28;20445;-82
2022/03/19 00:24:33;;;;;;;11.47;8.40;;;7.10;99.90;;;;;;5124266;28;20450;-83
2022/03/19 00:27:00;;;;;;;10.70;7.30;;;7.10;99.90;;;;;;5124935;28;20869;-82
2022/03/19 00:29:27;;;;;;;12.50;7.50;;;7.00;99.90;;;;;;5124484;28;20558;-83
2022/03/19 00:31:54;;;;;;;15.00;8.43;;;7.00;99.90;;;;;;5124743;28;20449;-82
2022/03/19 00:34:22;;;;;;;13.90;7.20;;;7.00;99.90;;;;;;5124630;28;20453;-83
2022/03/19 00:36:50;;;;;;;11.73;7.93;;;7.00;99.90;;;;;;5125707;28;20533;-83
2022/03/19 00:39:16;;;;;;;13.57;8.43;;;7.00;99.90;;;;;;5132307;28;20446;-82
2022/03/19 00:41:43;;;;;;;12.03;7.27;;;7.00;99.90;;;;;;5136443;28;20509;-82
2022/03/19 00:44:10;;;;;;;12.70;7.47;;;6.90;99.90;;;;;;5136137;28;20500;-83
2022/03/19 00:46:37;;;;;;;10.77;6.83;;;6.90;99.90;;;;;;5131127;28;21020;-83
2022/03/19 00:49:04;;;;;;;11.43;8.13;;;6.90;99.90;;;;;;5126235;28;20441;-83
2022/03/19 00:51:32;;;;;;;13.37;7.80;;;6.90;99.90;;;;;;5125560;28;20462;-83
2022/03/19 00:53:59;;;;;;;12.60;8.30;;;6.90;99.90;;;;;;5131440;28;20464;-81
2022/03/19 00:56:26;;;;;;;10.47;8.50;;;6.80;99.90;;;;;;5137454;27;20466;-82
2022/03/19 00:58:53;;;;;;;9.00;7.50;;;6.70;99.90;;;;;;5137443;28;20437;-83
2022/03/19 01:01:20;;;;;;;10.30;6.80;;;6.70;99.90;;;;;;5136331;28;20486;-83
2022/03/19 01:03:47;;;;;;;13.43;7.90;;;6.70;99.90;;;;;;5135244;28;20448;-82
2022/03/19 01:06:14;;;;;;;10.17;7.83;;;6.70;99.90;;;;;;5133357;28;20477;-83
2022/03/19 01:08:42;;;;;;;12.33;8.10;;;6.70;99.90;;;;;;5130790;28;20953;-82
2022/03/19 01:11:09;;;;;;;13.03;8.23;;;6.70;99.90;;;;;;5109713;28;20525;-83
2022/03/19 01:13:35;;;;;;;11.27;7.33;;;6.70;99.90;;;;;;5124996;28;20517;-84
2022/03/19 01:16:02;;;;;;;11.77;8.53;;;6.70;99.90;;;;;;5125468;28;20537;-84
2022/03/19 01:18:29;;;;;;;15.60;7.77;;;6.70;99.90;;;;;;5126294;28;20466;-84
2022/03/19 01:20:56;;;;;;;12.17;8.30;;;6.60;99.90;;;;;;5125306;28;20487;-83
2022/03/19 01:23:23;;;;;;;13.40;8.30;;;6.60;99.90;;;;;;5125845;28;20492;-84
2022/03/19 01:25:51;;;;;;;16.90;8.10;;;6.60;99.90;;;;;;5125149;28;20464;-83
2022/03/19 01:28:18;;;;;;;13.57;9.47;;;6.60;99.90;;;;;;5123473;28;20513;-83
2022/03/19 01:30:45;;;;;;;11.07;7.83;;;6.60;99.90;;;;;;5119634;28;20499;-83
2022/03/19 01:33:12;;;;;;;11.47;7.40;;;6.50;99.90;;;;;;5119479;28;20448;-83
2022/03/19 01:35:39;;;;;;;13.67;7.93;;;6.50;99.90;;;;;;5121485;28;20477;-83
2022/03/19 01:38:05;;;;;;;12.63;8.67;;;6.50;99.90;;;;;;5121040;28;20452;-83
2022/03/19 01:40:32;;;;;;;17.57;8.53;;;6.40;99.90;;;;;;5120021;28;20468;-83
2022/03/19 01:43:01;;;;;;;12.23;8.10;;;6.40;99.90;;;;;;5120144;28;20440;-79
2022/03/19 01:45:29;;;;;;;11.27;8.43;;;6.40;99.90;;;;;;5121398;28;20481;-82
2022/03/19 01:47:56;;;;;;;14.03;9.20;;;6.30;99.90;;;;;;5123001;28;20484;-83
2022/03/19 01:50:24;;;;;;;14.77;8.23;;;6.30;99.90;;;;;;5120887;28;20441;-82
2022/03/19 01:52:51;;;;;;;15.00;8.40;;;6.30;99.90;;;;;;5121550;28;20449;-80
2022/03/19 01:55:21;;;;;;;18.20;9.17;;;6.30;99.90;;;;;;5121800;28;20499;-82
2022/03/19 01:57:49;;;;;;;14.07;8.67;;;6.20;99.90;;;;;;5117138;28;20952;-82
2022/03/19 02:00:22;;;;;;;13.30;8.70;;;6.30;99.90;;;;;;5102366;28;20877;-83
2022/03/19 02:02:50;;;;;;;11.87;9.03;;;6.20;99.90;;;;;;5119792;28;20495;-82
2022/03/19 02:05:19;;;;;;;13.77;8.47;;;6.20;99.90;;;;;;5122665;28;20876;-83
2022/03/19 02:07:47;;;;;;;12.93;8.60;;;6.20;99.90;;;;;;5121641;28;20483;-83
2022/03/19 02:10:15;;;;;;;13.17;9.37;;;6.30;99.90;;;;;;5121811;28;20449;-83
2022/03/19 02:12:43;;;;;;;11.23;9.47;;;6.20;99.90;;;;;;5121555;28;20434;-83
2022/03/19 02:15:10;;;;;;;14.73;9.17;;;6.10;99.90;;;;;;5110091;28;20473;-83
2022/03/19 02:17:39;;;;;;;14.57;9.50;;;6.10;99.90;;;;;;5121046;28;20451;-82
2022/03/19 02:20:07;;;;;;;18.37;8.70;;;6.10;99.90;;;;;;5122209;28;20433;-82
2022/03/19 02:22:34;;;;;;;13.90;9.87;;;6.10;99.90;;;;;;5120802;28;20444;-83
2022/03/19 02:27:47;;;;;;;15.63;9.60;;;6.10;99.90;;;;;;5121187;28;20484;-82
2022/03/19 02:30:16;;;;;;;12.67;9.30;;;6.00;99.90;;;;;;5108185;28;20530;-82
2022/03/19 02:32:47;;;;;;;12.87;10.47;;;6.00;99.90;;;;;;5117098;28;20461;-82
2022/03/19 02:35:14;;;;;;;13.13;10.07;;;6.00;99.90;;;;;;5104985;28;20471;-82
2022/03/19 02:37:43;;;;;;;13.93;9.33;;;6.00;99.90;;;;;;5120678;28;20478;-82
2022/03/19 02:40:13;;;;;;;14.30;9.40;;;5.90;99.90;;;;;;5120116;28;20810;-82
2022/03/19 02:42:40;;;;;;;13.13;10.27;;;5.90;99.90;;;;;;5120667;28;20453;-82
2022/03/19 02:45:09;;;;;;;13.47;10.20;;;5.90;99.90;;;;;;5120015;28;20962;-82
2022/03/19 02:47:56;;;;;;;11.50;9.63;;;5.90;99.90;;;;;;5120758;28;20510;-81
2022/03/19 02:50:24;;;;;;;16.30;9.93;;;5.90;99.90;;;;;;5120367;28;20465;-82
2022/03/19 02:52:51;;;;;;;14.60;8.63;;;5.80;99.90;;;;;;5120295;28;20460;-79
2022/03/19 02:55:20;;;;;;;13.03;10.47;;;5.80;99.90;;;;;;5120279;28;20474;-80
2022/03/19 02:57:47;;;;;;;18.53;10.13;;;5.80;99.90;;;;;;5120253;28;20449;-81
2022/03/19 03:00:14;;;;;;;16.53;9.60;;;5.60;99.90;;;;;;5120234;28;20448;-82
2022/03/19 03:02:42;;;;;;;19.07;11.03;;;5.60;99.90;;;;;;5120000;28;20454;-83
2022/03/19 03:05:12;;;;;;;14.30;10.30;;;5.60;99.90;;;;;;5119888;28;20894;-81
2022/03/19 03:07:39;;;;;;;15.70;10.53;;;5.60;99.90;;;;;;5118318;28;20503;-83
2022/03/19 03:10:06;;;;;;;16.13;9.80;;;5.60;99.90;;;;;;5105650;28;20927;-83
2022/03/19 03:12:34;;;;;;;13.70;9.60;;;5.60;99.90;;;;;;5108652;28;20530;-82
2022/03/19 03:15:01;;;;;;;21.70;8.93;;;5.50;99.90;;;;;;5111580;28;20479;-82
2022/03/19 03:17:29;;;;;;;12.67;9.53;;;5.50;99.90;;;;;;5103361;28;20478;-82
2022/03/19 03:19:56;;;;;;;16.50;10.20;;;5.50;99.90;;;;;;5118024;28;20444;-82
2022/03/19 03:22:22;;;;;;;15.67;10.00;;;5.50;99.90;;;;;;5118638;28;20452;-82
2022/03/19 03:24:49;;;;;;;12.87;10.30;;;5.50;99.90;;;;;;5117442;28;20543;-83
2022/03/19 03:27:16;;;;;;;16.30;9.40;;;5.40;99.90;;;;;;5116662;28;20491;-82
2022/03/19 03:29:44;;;;;;;15.27;10.20;;;5.40;99.90;;;;;;5116388;28;20799;-82
2022/03/19 03:32:11;;;;;;;17.20;10.10;;;5.40;99.90;;;;;;5119951;28;20453;-81
2022/03/19 03:34:38;;;;;;;10.90;8.43;;;5.40;99.90;;;;;;5119450;28;20538;-82
2022/03/19 03:37:05;;;;;;;13.60;9.60;;;5.30;99.90;;;;;;5120480;28;20520;-82
2022/03/19 03:39:32;;;;;;;15.40;9.70;;;5.30;99.90;;;;;;5113685;28;20456;-82
2022/03/19 03:41:59;;;;;;;14.90;10.20;;;5.30;99.90;;;;;;5114191;28;20813;-80
2022/03/19 03:44:26;;;;;;;12.10;8.93;;;5.20;99.90;;;;;;5118048;28;20484;-80
2022/03/19 03:46:54;;;;;;;14.90;10.10;;;5.20;99.90;;;;;;5118163;28;20533;-81
2022/03/19 03:49:21;;;;;;;11.73;8.50;;;5.10;99.90;;;;;;5118392;28;20531;-81
2022/03/19 03:51:47;;;;;;;10.97;8.97;;;5.10;99.90;;;;;;5118523;28;20808;-81
2022/03/19 03:54:15;;;;;;;15.20;10.40;;;5.00;99.90;;;;;;5117786;28;20496;-81
2022/03/19 03:56:42;;;;;;;11.13;9.00;;;5.10;99.90;;;;;;5118720;28;20474;-81
2022/03/19 03:59:09;;;;;;;12.10;9.20;;;5.10;99.90;;;;;;5098960;28;20449;-82
2022/03/19 04:01:36;;;;;;;17.10;11.57;;;5.10;99.90;;;;;;5108078;28;20445;-81
2022/03/19 04:04:05;;;;;;;14.07;10.07;;;5.10;99.90;;;;;;5120023;28;20455;-82
2022/03/19 04:06:31;;;;;;;18.07;10.70;;;5.10;99.90;;;;;;5120158;28;20472;-81
2022/03/19 04:08:58;;;;;;;15.70;9.77;;;5.00;99.90;;;;;;5120230;28;20504;-82
2022/03/19 04:11:25;;;;;;;12.27;9.43;;;5.00;99.90;;;;;;5119424;28;20444;-80
2022/03/19 04:13:52;;;;;;;11.53;9.53;;;5.00;99.90;;;;;;5119824;28;20462;-82
2022/03/19 04:16:19;;;;;;;12.67;10.03;;;4.90;99.90;;;;;;5119690;28;20553;-82
2022/03/19 04:18:45;;;;;;;16.90;10.87;;;4.90;99.90;;;;;;5120704;28;20472;-81
2022/03/19 04:21:13;;;;;;;15.90;10.40;;;4.90;99.90;;;;;;5118423;28;20487;-80
2022/03/19 04:23:40;;;;;;;11.87;9.40;;;4.90;99.90;;;;;;5117309;28;20979;-82
2022/03/19 04:26:07;;;;;;;19.33;10.80;;;4.90;99.90;;;;;;5118476;28;20477;-82
2022/03/19 04:28:34;;;;;;;17.07;11.53;;;4.80;99.90;;;;;;5119685;28;20457;-81
2022/03/19 04:31:00;;;;;;;18.50;12.20;;;4.80;99.90;;;;;;5120427;28;21169;-80
2022/03/19 04:33:27;;;;;;;14.80;11.30;;;4.80;99.90;;;;;;5119952;28;20474;-81
2022/03/19 04:38:40;;;;;;;16.77;10.60;;;4.80;99.90;;;;;;5113877;28;20518;-81
2022/03/19 04:41:08;;;;;;;19.10;10.93;;;4.80;99.90;;;;;;5109837;28;21003;-82
2022/03/19 04:43:34;;;;;;;14.17;11.97;;;4.70;99.90;;;;;;5119152;28;20454;-81
2022/03/19 04:46:01;;;;;;;14.30;10.97;;;4.70;99.90;;;;;;5118244;28;20456;-82
2022/03/19 04:48:30;;;;;;;17.30;11.13;;;4.70;99.90;;;;;;5118580;28;21258;-82
2022/03/19 04:50:57;;;;;;;10.10;9.00;;;4.70;99.90;;;;;;5118856;28;20434;-82
2022/03/19 04:53:25;;;;;;;12.43;10.40;;;4.70;99.90;;;;;;5097568;28;20449;-81
2022/03/19 04:55:53;;;;;;;13.70;9.90;;;4.70;99.90;;;;;;5104813;28;20547;-82
2022/03/19 04:58:20;;;;;;;20.63;11.47;;;4.70;99.90;;;;;;5119086;28;20513;-82
2022/03/19 05:00:47;;;;;;;18.40;13.10;;;4.60;99.90;;;;;;5121362;28;20522;-81
2022/03/19 05:03:14;;;;;;;18.50;12.23;;;4.60;99.90;;;;;;5122384;28;20476;-81
2022/03/19 05:05:41;;;;;;;16.27;10.57;;;4.70;99.90;;;;;;5122590;28;20468;-81
2022/03/19 05:08:08;;;;;;;17.03;12.73;;;4.70;99.90;;;;;;5123394;28;20458;-81
2022/03/19 05:13:20;;;;;;;13.70;10.40;;;4.60;99.90;;;;;;5123648;28;20440;-81
2022/03/19 05:15:47;;;;;;;20.63;12.17;;;4.70;99.90;;;;;;5124041;28;20483;-80
2022/03/19 05:18:14;;;;;;;18.67;10.60;;;4.60;99.90;;;;;;5121756;28;20484;-81
2022/03/19 05:20:41;;;;;;;14.83;10.83;;;4.70;99.90;;;;;;5121961;28;20448;-82
2022/03/19 05:23:07;;;;;;;17.80;10.43;;;4.60;99.90;;;;;;5123830;28;20917;-80
2022/03/19 05:25:34;;;;;;;17.37;11.93;;;4.60;99.90;;;;;;5124828;28;20940;-81
2022/03/19 05:28:01;;;;;;;18.10;12.77;;;4.50;99.90;;;;;;5124220;28;20535;-80
2022/03/19 05:30:30;;;;;;;19.03;11.93;;;4.50;99.90;;;;;;5122642;28;20447;-80
2022/03/19 05:32:57;;;;;;;15.47;11.00;;;4.50;99.90;;;;;;5123571;28;20875;-78
2022/03/19 05:35:26;;;;;;;13.87;11.27;;;4.50;99.90;;;;;;5123692;28;20510;-80
2022/03/19 05:37:53;;;;;;;14.27;11.43;;;4.50;99.90;;;;;;5123639;28;21072;-80
2022/03/19 05:40:20;;;;;;;13.47;11.83;;;4.50;99.90;;;;;;5121652;28;20459;-82
2022/03/19 05:42:47;;;;;;;20.30;12.47;;;4.50;99.90;;;;;;5122586;28;20472;-80
2022/03/19 05:45:15;;;;;;;18.10;12.00;;;4.50;99.90;;;;;;5121395;28;20528;-82
2022/03/19 05:47:43;;;;;;;18.93;11.90;;;4.60;99.90;;;;;;5123758;28;20931;-81
2022/03/19 05:50:10;;;;;;;13.77;11.33;;;4.60;99.90;;;;;;5123073;28;21040;-80
2022/03/19 05:52:37;;;;;;;15.23;11.77;;;4.60;99.90;;;;;;5123374;28;20506;-82
2022/03/19 05:55:05;;;;;;;20.43;13.87;;;4.60;99.90;;;;;;5122440;28;20451;-81
2022/03/19 05:57:31;;;;;;;14.67;11.90;;;4.60;99.90;;;;;;5122701;28;20448;-82
2022/03/19 05:59:58;;;;;;;15.70;11.30;;;4.60;99.90;;;;;;5113805;28;20519;-81
2022/03/19 06:02:25;;;;;;;17.17;12.73;;;4.60;99.90;;;;;;5123088;28;20457;-81
2022/03/19 06:04:54;;;;;;;23.43;13.40;;;4.70;99.90;;;;;;5123377;28;20456;-81
2022/03/19 06:07:21;;;;;;;15.37;11.67;;;;;;;;;;5123462;28;21194;-83
2022/03/19 06:09:48;;;;;;;15.90;10.90;;;4.70;99.90;;;;;;5122313;28;20463;-79
2022/03/19 06:12:14;;;;;;;16.50;12.20;;;4.80;99.90;;;;;;5121405;28;20457;-81
2022/03/19 06:14:41;;;;;;;14.70;10.30;;;4.80;99.90;;;;;;5127099;28;20450;-81
2022/03/19 06:17:08;;;;;;;15.90;11.53;;;4.80;99.90;;;;;;5126412;28;20479;-80
2022/03/19 06:19:35;;;;;;;16.10;11.77;;;4.80;99.90;;;;;;5110526;28;20478;-82
2022/03/19 06:22:04;;;;;;;14.00;10.90;;;4.80;99.90;;;;;;5121155;28;20459;-82
2022/03/19 06:24:30;;;;;;;13.83;10.80;;;4.90;99.90;;;;;;5122420;28;20972;-83
2022/03/19 06:26:57;;;;;;;17.43;11.73;;;4.90;99.90;;;;;;5121378;28;20536;-82
2022/03/19 06:29:24;;;;;;;17.03;11.47;;;4.90;99.90;;;;;;5124815;28;20450;-82
2022/03/19 06:31:51;;;;;;;17.10;11.40;;;5.00;99.90;;;;;;5124377;28;20488;-83
2022/03/19 06:34:17;;;;;;;14.47;11.63;;;5.00;99.90;;;;;;5122035;28;20467;-82
2022/03/19 06:39:30;;;;;;;17.43;11.33;;;5.10;99.90;;;;;;5124183;28;20503;-83
2022/03/19 06:41:57;;;;;;;19.83;11.67;;;5.10;99.90;;;;;;5124614;28;20453;-83
2022/03/19 06:44:24;;;;;;;15.00;11.17;;;5.10;99.90;;;;;;5121293;28;20520;-82
2022/03/19 06:46:51;;;;;;;14.00;10.93;;;5.20;99.90;;;;;;5126278;28;20486;-82
2022/03/19 06:49:18;;;;;;;16.67;11.77;;;5.30;99.90;;;;;;5125884;28;20440;-82
2022/03/19 06:51:45;;;;;;;17.83;10.80;;;5.40;99.90;;;;;;5124802;28;20451;-82
2022/03/19 06:54:12;;;;;;;19.00;10.63;;;5.40;99.90;;;;;;5137165;28;20443;-81
2022/03/19 06:56:40;;;;;;;17.47;10.70;;;5.50;99.90;;;;;;5139626;27;20479;-81
2022/03/19 06:59:07;;;;;;;16.03;10.50;;;5.50;99.90;;;;;;5138565;27;20490;-83
2022/03/19 07:01:36;;;;;;;28.43;11.20;;;5.60;99.90;;;;;;5135830;27;20456;-83
2022/03/19 07:04:04;;;;;;;17.73;10.40;;;5.60;99.90;;;;;;5147367;27;20451;-82
2022/03/19 07:06:31;;;;;;;14.23;9.20;;;5.70;99.90;;;;;;5154509;27;20475;-83
2022/03/19 07:08:58;;;;;;;13.10;10.00;;;5.70;99.90;;;;;;5138578;27;20448;-83
2022/03/19 07:11:25;;;;;;;12.33;9.50;;;5.80;99.90;;;;;;5136527;27;20441;-83
2022/03/19 07:13:53;;;;;;;15.53;9.10;;;5.80;99.90;;;;;;5142670;27;20442;-83
2022/03/19 07:16:20;;;;;;;17.73;9.90;;;5.80;99.90;;;;;;5143391;27;20503;-83
2022/03/19 07:18:47;;;;;;;13.30;9.00;;;5.90;99.90;;;;;;5146243;27;20548;-83
2022/03/19 07:21:15;;;;;;;13.60;10.90;;;5.90;99.90;;;;;;5135249;27;20505;-82
2022/03/19 07:23:42;;;;;;;19.20;9.07;;;6.00;99.90;;;;;;5132259;28;20512;-82
2022/03/19 07:26:09;;;;;;;20.73;10.90;;;6.10;99.90;;;;;;5131296;28;20464;-82
2022/03/19 07:28:36;;;;;;;17.40;9.90;;;6.10;99.90;;;;;;5135782;28;20444;-82
2022/03/19 07:31:05;;;;;;;19.27;9.47;;;6.20;99.90;;;;;;5131153;28;20454;-82
2022/03/19 07:33:34;;;;;;;17.00;9.37;;;6.30;99.90;;;;;;5128617;28;20481;-83
2022/03/19 07:36:02;;;;;;;14.43;9.33;;;6.40;99.90;;;;;;5134372;28;20459;-82
2022/03/19 07:38:30;;;;;;;14.00;10.00;;;6.40;99.90;;;;;;5122355;28;20500;-83
2022/03/19 07:43:42;;;;;;;11.13;8.10;;;6.60;99.90;;;;;;5126752;28;20513;-83
2022/03/19 07:46:10;;;;;;;12.23;8.27;;;6.70;99.90;;;;;;5134510;28;20465;-83
2022/03/19 07:48:37;;;;;;;19.07;9.27;;;6.70;99.90;;;;;;5132216;28;20505;-83
2022/03/19 07:51:04;;;;;;;15.43;9.27;;;6.80;99.90;;;;;;5133719;28;20509;-83
2022/03/19 07:53:31;;;;;;;13.10;8.03;;;6.90;99.90;;;;;;5128018;28;20464;-83
2022/03/19 07:55:58;;;;;;;10.10;7.03;;;7.00;99.90;;;;;;5128606;28;20480;-82
2022/03/19 07:58:25;;;;;;;10.53;7.50;;;7.30;99.90;;;;;;5131220;28;20512;-82
2022/03/19 08:00:51;;;;;;;10.80;7.33;;;7.60;99.90;;;;;;5124642;28;20484;-81
2022/03/19 08:03:20;;;;;;;10.67;7.37;;;7.80;99.90;;;;;;5125202;28;20526;-82
2022/03/19 08:05:47;;;;;;;13.70;8.87;;;8.00;99.90;;;;;;5132723;28;20481;-83
2022/03/19 08:08:13;;;;;;;14.07;6.87;;;8.30;99.90;;;;;;5130599;28;20455;-80
2022/03/19 08:10:41;;;;;;;13.30;7.50;;;8.60;99.90;;;;;;5127656;28;20475;-81
2022/03/19 08:13:09;;;;;;;14.17;7.93;;;9.20;99.90;;;;;;5118434;28;20449;-81
2022/03/19 08:15:39;;;;;;;9.87;6.50;;;9.70;99.90;;;;;;5128769;28;20483;-80
2022/03/19 08:18:06;;;;;;;15.80;6.33;;;10.00;99.90;;;;;;5126946;28;20530;-80
2022/03/19 08:20:34;;;;;;;13.60;6.53;;;10.50;99.90;;;;;;5132875;27;20964;-80
2022/03/19 08:23:02;;;;;;;7.60;5.93;;;10.70;99.90;;;;;;5131982;27;20495;-78
2022/03/19 08:25:28;;;;;;;8.10;5.80;;;11.20;99.90;;;;;;5130105;28;20479;-80
2022/03/19 08:27:57;;;;;;;12.83;6.43;;;11.50;99.90;;;;;;5129295;28;20453;-81
2022/03/19 08:30:24;;;;;;;12.00;6.00;;;11.80;99.90;;;;;;5130308;28;20516;-80
2022/03/19 08:32:50;;;;;;;10.53;5.97;;;12.10;99.90;;;;;;5130926;28;20453;-79
2022/03/19 08:35:17;;;;;;;12.53;6.60;;;12.70;99.90;;;;;;5129764;28;20473;-81
2022/03/19 08:37:46;;;;;;;13.80;5.90;;;12.90;99.90;;;;;;5131653;28;20449;-80
2022/03/19 08:40:15;;;;;;;12.30;6.03;;;13.00;99.90;;;;;;5131198;28;20488;-81
2022/03/19 08:42:43;;;;;;;12.37;5.77;;;13.70;99.90;;;;;;5131066;28;20471;-81
2022/03/19 08:45:10;;;;;;;8.73;5.43;;;14.30;99.90;;;;;;5126820;28;20456;-80
2022/03/19 08:47:37;;;;;;;14.37;6.17;;;15.10;99.90;;;;;;5131995;28;20464;-81
2022/03/19 08:50:04;;;;;;;11.60;5.53;;;15.10;99.90;;;;;;5130138;27;20879;-81
2022/03/19 08:52:32;;;;;;;12.90;5.27;;;15.40;99.90;;;;;;5131033;27;20983;-81
2022/03/19 08:55:01;;;;;;;9.10;5.20;;;15.30;99.90;;;;;;5129810;28;20529;-80
2022/03/19 08:57:28;;;;;;;12.13;4.63;;;15.40;99.90;;;;;;5131675;28;20823;-82
2022/03/19 08:59:55;;;;;;;11.70;5.40;;;15.00;99.90;;;;;;5131356;28;20713;-82
2022/03/19 09:02:23;;;;;;;11.83;5.03;;;15.00;99.90;;;;;;5131663;28;20442;-81
2022/03/19 09:04:49;;;;;;;7.90;4.80;;;15.60;99.90;;;;;;5131230;28;20460;-81
2022/03/19 09:07:17;;;;;;;7.30;4.23;;;16.70;99.90;;;;;;5126656;28;20481;-80
2022/03/19 09:09:44;;;;;;;8.23;3.90;;;17.10;99.90;;;;;;5120033;27;20511;-81
2022/03/19 09:12:12;;;;;;;11.83;4.80;;;17.40;98.30;;;;;;5118976;28;20453;-81
2022/03/19 09:14:39;;;;;;;7.20;4.13;;;18.40;96.50;;;;;;5115502;28;20468;-82
2022/03/19 09:17:06;;;;;;;9.00;4.37;;;19.10;92.30;;;;;;5123038;27;20497;-82
2022/03/19 09:19:33;;;;;;;8.63;4.10;;;18.10;87.00;;;;;;5130529;27;20503;-83
2022/03/19 09:22:00;;;;;;;9.00;4.00;;;17.80;87.40;;;;;;5126904;27;20514;-80
2022/03/19 09:24:28;;;;;;;7.73;4.00;;;18.80;89.90;;;;;;5126417;27;20453;-84
2022/03/19 09:26:59;;;;;;;10.77;3.70;;;18.90;83.20;;;;;;5126817;27;20483;-80
2022/03/19 09:29:27;;;;;;;8.67;4.50;;;19.00;81.50;;;;;;5125555;27;20437;-84
2022/03/19 09:31:54;;;;;;;8.70;3.60;;;19.90;77.20;;;;;;5129165;27;20514;-82
2022/03/19 09:34:21;;;;;;;7.20;3.53;;;19.40;76.60;;;;;;5125674;27;20506;-84
2022/03/19 09:36:48;;;;;;;9.87;4.07;;;19.10;74.40;;;;;;5126763;27;20464;-82
2022/03/19 09:39:15;;;;;;;6.63;3.20;;;18.90;73.70;;;;;;5123868;27;20472;-82
2022/03/19 09:41:43;;;;;;;8.90;4.73;;;19.20;71.00;;;;;;5126716;27;20447;-81
2022/03/19 09:44:11;;;;;;;7.60;3.63;;;20.40;70.80;;;;;;5117899;27;20508;-82
2022/03/19 09:46:41;;;;;;;7.33;4.17;;;20.50;67.80;;;;;;5121288;27;20914;-82
2022/03/19 09:49:08;;;;;;;5.97;3.23;;;21.10;68.40;;;;;;5128953;27;20460;-83
2022/03/19 09:51:39;;;;;;;9.57;3.57;;;21.30;61.40;;;;;;5118056;27;20991;-81
2022/03/19 09:54:27;;;;;;;7.73;3.77;;;21.60;64.20;;;;;;5125492;27;20443;-83
2022/03/19 09:56:54;;;;;;;8.80;3.90;;;22.10;62.80;;;;;;5128573;27;20472;-82
2022/03/19 09:59:22;;;;;;;5.70;3.80;;;21.70;59.90;;;;;;5122970;28;20567;-81
2022/03/19 10:01:51;;;;;;;7.70;3.30;;;22.60;60.50;;;;;;5131732;27;20547;-82
2022/03/19 10:04:20;;;;;;;8.63;3.53;;;21.90;57.10;;;;;;5137018;27;20448;-80
2022/03/19 10:09:42;;;;;;;6.53;2.80;;;22.30;55.70;;;;;;5126772;28;20497;-82
2022/03/19 10:12:14;;;;;;;7.47;3.27;;;22.30;54.00;;;;;;5125339;28;20533;-84
2022/03/19 10:14:41;;;;;;;7.13;3.23;;;21.90;52.90;;;;;;5134311;27;20441;-83
2022/03/19 10:17:09;;;;;;;6.40;2.77;;;22.10;53.30;;;;;;5129474;27;20465;-82
2022/03/19 10:19:51;;;;;;;4.93;2.43;;;21.90;51.50;;;;;;5132168;27;20476;-81
2022/03/19 10:22:26;;;;;;;4.97;2.40;;;22.20;51.70;;;;;;5123898;27;20436;-83
2022/03/19 10:25:01;;;;;;;7.07;2.53;;;21.50;49.90;;;;;;5119601;27;20464;-82
2022/03/19 10:27:32;;;;;;;6.53;2.63;;;21.90;51.40;;;;;;5121978;28;20506;-81
2022/03/19 10:30:11;;;;;;;7.70;2.50;;;22.20;49.40;;;;;;5121235;28;20496;-82
2022/03/19 10:32:41;;;;;;;5.40;2.67;;;22.20;48.70;;;;;;5113535;28;20453;-83
2022/03/19 10:35:26;;;;;;;4.30;2.40;;;23.40;49.10;;;;;;5125393;28;20476;-84
2022/03/19 10:37:53;;;;;;;5.67;2.50;;;24.10;47.20;;;;;;5118977;28;20451;-83
2022/03/19 10:40:21;;;;;;;4.30;2.00;;;24.50;46.60;;;;;;5127171;27;20481;-86
2022/03/19 10:42:57;;;;;;;4.40;2.20;;;23.80;45.90;;;;;;5133205;27;20473;-83
2022/03/19 10:45:24;;;;;;;4.10;1.73;;;24.10;45.70;;;;;;5135175;27;20464;-82
2022/03/19 10:47:52;;;;;;;4.97;2.07;;;23.90;45.00;;;;;;5143173;27;20459;-85
2022/03/19 10:50:20;;;;;;;4.77;2.33;;;25.20;45.70;;;;;;5137059;27;20437;-84
2022/03/19 10:52:49;;;;;;;5.70;2.00;;;25.00;44.60;;;;;;5130319;27;20620;-83
2022/03/19 10:55:16;;;;;;;4.80;2.10;;;24.60;43.90;;;;;;5126294;28;20484;-83
2022/03/19 10:57:43;;;;;;;4.60;1.97;;;24.40;42.90;;;;;;5126200;28;20449;-84
2022/03/19 11:00:10;;;;;;;3.10;1.63;;;23.70;42.00;;;;;;5125993;28;20512;-84
2022/03/19 11:02:43;;;;;;;5.20;1.60;;;23.50;43.80;;;;;;5126595;27;20448;-83
2022/03/19 11:05:12;;;;;;;4.10;1.70;;;24.20;41.90;;;;;;5127339;28;20793;-84
2022/03/19 11:07:43;;;;;;;5.00;2.93;;;25.00;43.50;;;;;;5120827;28;20457;-83
2022/03/19 11:10:11;;;;;;;4.77;1.63;;;25.40;39.90;;;;;;5127816;28;20453;-84
2022/03/19 11:12:42;;;;;;;4.50;2.23;;;25.40;41.60;;;;;;5131446;28;20449;-83
2022/03/19 11:15:11;;;;;;;3.97;1.60;;;26.30;40.80;;;;;;5129494;28;20472;-85
2022/03/19 11:17:40;;;;;;;5.13;1.80;;;26.20;40.30;;;;;;5129338;28;20469;-83
2022/03/19 11:20:10;;;;;;;3.57;1.80;;;26.70;40.40;;;;;;5128334;28;20477;-85
2022/03/19 11:22:41;;;;;;;3.63;1.50;;;24.70;38.60;;;;;;5130852;28;20441;-84
2022/03/19 11:25:16;;;;;;;4.43;1.97;;;25.30;40.00;;;;;;5128359;28;20472;-84
2022/03/19 11:27:45;;;;;;;5.30;2.20;;;24.90;39.10;;;;;;5128691;28;20453;-84
2022/03/19 11:30:19;;;;;;;4.73;2.07;;;24.50;38.40;;;;;;5109976;28;20872;-84
2022/03/19 11:33:09;;;;;;;6.27;1.80;;;24.90;41.20;;;;;;5127378;28;20449;-84
2022/03/19 11:35:39;;;;;;;6.97;1.87;;;25.90;39.60;;;;;;5127414;28;20483;-84
2022/03/19 11:38:11;;;;;;;4.60;1.63;;;24.60;38.90;;;;;;5127233;28;20448;-85
2022/03/19 11:40:56;;;;;;;4.13;1.40;;;25.10;41.40;;;;;;5127771;28;20488;-83
2022/03/19 11:43:31;;;;;;;5.53;2.07;;;25.90;39.70;;;;;;5125905;28;20457;-83
2022/03/19 11:46:00;;;;;;;4.50;1.80;;;25.50;39.20;;;;;;5126832;28;20469;-84
2022/03/19 11:48:46;;;;;;;5.23;1.90;;;25.80;39.60;;;;;;5126366;28;20429;-85
2022/03/19 11:51:32;;;;;;;4.40;1.90;;;27.90;39.70;;;;;;5125708;28;20447;-84
2022/03/19 11:54:02;;;;;;;5.27;2.07;;;27.90;39.80;;;;;;5125649;28;20452;-84
2022/03/19 11:56:44;;;;;;;3.10;1.67;;;27.50;39.10;;;;;;5126427;28;20988;-84
2022/03/19 11:59:13;;;;;;;3.80;1.90;;;27.20;37.60;;;;;;5129938;28;20461;-81
2022/03/19 12:01:48;;;;;;;3.90;1.90;;;27.30;37.10;;;;;;5131849;28;20445;-84
2022/03/19 12:04:15;;;;;;;5.27;1.73;;;27.80;36.80;;;;;;5131020;28;20524;-86
2022/03/19 12:06:51;;;;;;;4.37;2.00;;;28.50;36.30;;;;;;5129188;28;20526;-85
2022/03/19 12:09:20;;;;;;;5.30;1.80;;;27.60;37.30;;;;;;5125620;28;20476;-85
2022/03/19 12:12:06;;;;;;;4.93;2.40;;;28.20;36.80;;;;;;5121186;28;20541;-85
2022/03/19 12:14:33;;;;;;;2.43;1.43;;;28.40;37.10;;;;;;5120827;28;20460;-85
2022/03/19 12:17:16;;;;;;;4.70;2.00;;;28.70;36.00;;;;;;5122027;28;20512;-84
2022/03/19 12:19:54;;;;;;;3.80;1.57;;;28.90;36.40;;;;;;5121620;28;20499;-86
2022/03/19 12:22:30;;;;;;;5.57;2.00;;;29.50;35.90;;;;;;5119408;28;20521;-85
2022/03/19 12:25:08;;;;;;;5.43;1.60;;;27.80;33.90;;;;;;5125144;28;20500;-84
2022/03/19 12:27:35;;;;;;;3.30;1.70;;;26.40;34.40;;;;;;5120600;28;20442;-83
2022/03/19 12:30:02;;;;;;;3.63;1.60;;;25.80;35.20;;;;;;5119916;28;20453;-84
2022/03/19 12:32:29;;;;;;;4.30;1.40;;;26.70;35.60;;;;;;5119533;28;20461;-84
2022/03/19 12:34:59;;;;;;;3.10;1.43;;;26.70;36.00;;;;;;5115695;28;20487;-84
2022/03/19 12:37:29;;;;;;;6.13;1.50;;;27.20;35.70;;;;;;5117473;28;20496;-83
2022/03/19 12:40:01;;;;;;;3.93;1.60;;;26.80;35.10;;;;;;5114267;28;20860;-84
2022/03/19 12:42:35;;;;;;;3.30;1.30;;;26.10;33.90;;;;;;5119078;28;20457;-84
2022/03/19 12:45:03;;;;;;;4.03;1.57;;;26.40;33.40;;;;;;5118122;28;20433;-82
2022/03/19 12:47:35;;;;;;;3.50;1.53;;;27.10;34.00;;;;;;5099548;28;20982;-85
2022/03/19 12:50:02;;;;;;;3.53;1.30;;;27.30;33.00;;;;;;5099696;28;20464;-83
2022/03/19 12:52:30;;;;;;;3.60;1.33;;;26.50;34.00;;;;;;5119861;28;20449;-85
2022/03/19 12:57:35;;;;;;;4.30;1.73;;;26.30;34.10;;;;;;5369824;22;20495;-84
2022/03/19 13:00:06;;;;;;;3.57;1.60;;;26.60;33.40;;;;;;5059065;28;20284;-82
2022/03/19 13:02:33;;;;;;;4.10;2.10;;;26.90;33.70;;;;;;5059742;28;20560;-84
2022/03/19 13:08:08;;;;;;;2.90;1.60;;;26.80;34.40;;;;;;3199219;26;20481;-83
2022/03/19 13:10:49;;;;;;;4.07;1.70;;;26.50;34.50;;;;;;5019177;28;20482;-84
2022/03/19 13:13:20;;;;;;;4.77;1.73;;;27.50;35.60;;;;;;5020515;28;20464;-82